sensor_id;sensor_type;location;lat;lon;timestamp;P1;durP1;ratioP1;P2;durP2;ratioP2
77350;SDS011;66420;50.246;14.320;2023-08-06T00:00:40;6.75;;;5.28;;
77350;SDS011;66420;50.246;14.320;2023-08-06T00:03:24;10.02;;;5.25;;
77350;SDS011;66420;50.246;14.320;2023-08-06T00:06:10;7.18;;;5.03;;
77350;SDS011;66420;50.246;14.320;2023-08-06T00:08:55;8.50;;;5.32;;
77350;SDS011;66420;50.246;14.320;2023-08-06T00:11:40;8.40;;;5.40;;
77350;SDS011;66420;50.246;14.320;2023-08-06T00:14:25;8.98;;;4.75;;
77350;SDS011;66420;50.246;14.320;2023-08-06T00:17:10;9.02;;;5.93;;
77350;SDS011;66420;50.246;14.320;2023-08-06T00:19:55;6.80;;;4.53;;
77350;SDS011;66420;50.246;14.320;2023-08-06T00:22:40;11.07;;;5.40;;
77350;SDS011;66420;50.246;14.320;2023-08-06T00:25:24;7.32;;;5.22;;
77350;SDS011;66420;50.246;14.320;2023-08-06T00:28:09;8.82;;;5.65;;
77350;SDS011;66420;50.246;14.320;2023-08-06T00:30:55;10.85;;;5.43;;
77350;SDS011;66420;50.246;14.320;2023-08-06T00:33:40;11.88;;;5.32;;
77350;SDS011;66420;50.246;14.320;2023-08-06T00:36:25;11.23;;;5.63;;
77350;SDS011;66420;50.246;14.320;2023-08-06T00:39:10;7.65;;;5.15;;
77350;SDS011;66420;50.246;14.320;2023-08-06T00:41:55;7.25;;;5.18;;
77350;SDS011;66420;50.246;14.320;2023-08-06T00:44:40;8.48;;;5.15;;
77350;SDS011;66420;50.246;14.320;2023-08-06T00:47:24;6.55;;;4.53;;
77350;SDS011;66420;50.246;14.320;2023-08-06T00:50:09;6.82;;;4.50;;
77350;SDS011;66420;50.246;14.320;2023-08-06T00:52:54;5.82;;;4.22;;
77350;SDS011;66420;50.246;14.320;2023-08-06T00:55:40;6.72;;;4.10;;
77350;SDS011;66420;50.246;14.320;2023-08-06T00:58:26;7.45;;;4.90;;
77350;SDS011;66420;50.246;14.320;2023-08-06T01:01:11;8.55;;;4.68;;
77350;SDS011;66420;50.246;14.320;2023-08-06T01:03:56;6.00;;;4.00;;
77350;SDS011;66420;50.246;14.320;2023-08-06T01:06:46;8.65;;;4.32;;
77350;SDS011;66420;50.246;14.320;2023-08-06T01:15:34;5.20;;;3.75;;
77350;SDS011;66420;50.246;14.320;2023-08-06T01:18:26;8.10;;;4.22;;
77350;SDS011;66420;50.246;14.320;2023-08-06T01:21:10;6.43;;;3.53;;
77350;SDS011;66420;50.246;14.320;2023-08-06T01:23:57;6.03;;;3.58;;
77350;SDS011;66420;50.246;14.320;2023-08-06T01:27:00;7.43;;;3.13;;
77350;SDS011;66420;50.246;14.320;2023-08-06T01:29:58;6.22;;;4.18;;
77350;SDS011;66420;50.246;14.320;2023-08-06T01:32:54;6.88;;;3.58;;
77350;SDS011;66420;50.246;14.320;2023-08-06T01:35:44;6.07;;;3.42;;
77350;SDS011;66420;50.246;14.320;2023-08-06T01:38:31;5.60;;;3.30;;
77350;SDS011;66420;50.246;14.320;2023-08-06T01:41:17;4.88;;;3.55;;
77350;SDS011;66420;50.246;14.320;2023-08-06T01:44:02;5.57;;;3.22;;
77350;SDS011;66420;50.246;14.320;2023-08-06T01:46:47;8.32;;;4.20;;
77350;SDS011;66420;50.246;14.320;2023-08-06T01:49:32;6.43;;;3.58;;
77350;SDS011;66420;50.246;14.320;2023-08-06T01:52:17;5.38;;;3.50;;
77350;SDS011;66420;50.246;14.320;2023-08-06T01:55:02;5.10;;;3.60;;
77350;SDS011;66420;50.246;14.320;2023-08-06T01:57:48;5.47;;;3.20;;
77350;SDS011;66420;50.246;14.320;2023-08-06T02:00:32;6.20;;;3.35;;
77350;SDS011;66420;50.246;14.320;2023-08-06T02:03:17;4.50;;;3.33;;
77350;SDS011;66420;50.246;14.320;2023-08-06T02:06:02;4.95;;;3.30;;
77350;SDS011;66420;50.246;14.320;2023-08-06T02:08:47;4.25;;;3.42;;
77350;SDS011;66420;50.246;14.320;2023-08-06T02:11:31;4.82;;;3.38;;
77350;SDS011;66420;50.246;14.320;2023-08-06T02:14:16;5.90;;;3.22;;
77350;SDS011;66420;50.246;14.320;2023-08-06T02:17:00;4.72;;;3.22;;
77350;SDS011;66420;50.246;14.320;2023-08-06T02:19:45;6.13;;;3.83;;
77350;SDS011;66420;50.246;14.320;2023-08-06T02:22:30;5.57;;;3.30;;
77350;SDS011;66420;50.246;14.320;2023-08-06T02:25:15;5.45;;;3.85;;
77350;SDS011;66420;50.246;14.320;2023-08-06T02:28:00;4.43;;;3.40;;
77350;SDS011;66420;50.246;14.320;2023-08-06T02:30:51;5.20;;;3.40;;
77350;SDS011;66420;50.246;14.320;2023-08-06T02:33:36;5.80;;;3.90;;
77350;SDS011;66420;50.246;14.320;2023-08-06T02:36:21;8.13;;;4.15;;
77350;SDS011;66420;50.246;14.320;2023-08-06T02:39:06;7.00;;;4.32;;
77350;SDS011;66420;50.246;14.320;2023-08-06T02:41:51;6.57;;;4.80;;
77350;SDS011;66420;50.246;14.320;2023-08-06T02:44:35;6.45;;;4.55;;
77350;SDS011;66420;50.246;14.320;2023-08-06T02:47:20;6.82;;;4.53;;
77350;SDS011;66420;50.246;14.320;2023-08-06T02:50:05;6.50;;;4.35;;
77350;SDS011;66420;50.246;14.320;2023-08-06T02:52:50;7.85;;;4.70;;
77350;SDS011;66420;50.246;14.320;2023-08-06T02:55:35;6.10;;;4.03;;
77350;SDS011;66420;50.246;14.320;2023-08-06T02:58:20;4.88;;;3.67;;
77350;SDS011;66420;50.246;14.320;2023-08-06T03:01:07;4.97;;;3.75;;
77350;SDS011;66420;50.246;14.320;2023-08-06T03:03:52;5.68;;;4.13;;
77350;SDS011;66420;50.246;14.320;2023-08-06T03:06:37;5.72;;;3.92;;
77350;SDS011;66420;50.246;14.320;2023-08-06T03:09:22;5.68;;;3.92;;
77350;SDS011;66420;50.246;14.320;2023-08-06T03:12:06;4.70;;;3.60;;
77350;SDS011;66420;50.246;14.320;2023-08-06T03:14:51;5.82;;;3.70;;
77350;SDS011;66420;50.246;14.320;2023-08-06T03:17:36;5.20;;;3.75;;
77350;SDS011;66420;50.246;14.320;2023-08-06T03:20:21;5.00;;;3.65;;
77350;SDS011;66420;50.246;14.320;2023-08-06T03:23:05;4.75;;;3.65;;
77350;SDS011;66420;50.246;14.320;2023-08-06T03:25:50;5.32;;;3.70;;
77350;SDS011;66420;50.246;14.320;2023-08-06T03:28:34;5.05;;;3.38;;
77350;SDS011;66420;50.246;14.320;2023-08-06T03:31:20;4.78;;;3.45;;
77350;SDS011;66420;50.246;14.320;2023-08-06T03:34:04;4.55;;;3.50;;
77350;SDS011;66420;50.246;14.320;2023-08-06T03:36:49;6.35;;;2.92;;
77350;SDS011;66420;50.246;14.320;2023-08-06T03:39:34;6.47;;;3.42;;
77350;SDS011;66420;50.246;14.320;2023-08-06T03:42:19;4.50;;;3.10;;
77350;SDS011;66420;50.246;14.320;2023-08-06T03:45:04;6.13;;;3.58;;
77350;SDS011;66420;50.246;14.320;2023-08-06T03:47:49;4.68;;;3.35;;
77350;SDS011;66420;50.246;14.320;2023-08-06T03:50:34;9.55;;;3.45;;
77350;SDS011;66420;50.246;14.320;2023-08-06T03:53:19;5.13;;;3.50;;
77350;SDS011;66420;50.246;14.320;2023-08-06T03:56:04;6.32;;;3.75;;
77350;SDS011;66420;50.246;14.320;2023-08-06T03:58:49;5.20;;;3.65;;
77350;SDS011;66420;50.246;14.320;2023-08-06T04:01:34;4.70;;;3.53;;
77350;SDS011;66420;50.246;14.320;2023-08-06T04:04:19;5.15;;;3.45;;
77350;SDS011;66420;50.246;14.320;2023-08-06T04:07:04;7.50;;;4.05;;
77350;SDS011;66420;50.246;14.320;2023-08-06T04:09:56;5.95;;;3.70;;
77350;SDS011;66420;50.246;14.320;2023-08-06T04:12:43;6.90;;;3.60;;
77350;SDS011;66420;50.246;14.320;2023-08-06T04:15:27;5.10;;;3.30;;
77350;SDS011;66420;50.246;14.320;2023-08-06T04:18:12;5.60;;;3.83;;
77350;SDS011;66420;50.246;14.320;2023-08-06T04:20:57;9.48;;;3.85;;
77350;SDS011;66420;50.246;14.320;2023-08-06T04:23:42;4.93;;;3.40;;
77350;SDS011;66420;50.246;14.320;2023-08-06T04:26:27;5.72;;;3.80;;
77350;SDS011;66420;50.246;14.320;2023-08-06T04:29:11;5.53;;;3.95;;
77350;SDS011;66420;50.246;14.320;2023-08-06T04:31:55;7.28;;;4.50;;
77350;SDS011;66420;50.246;14.320;2023-08-06T04:34:40;7.07;;;4.93;;
77350;SDS011;66420;50.246;14.320;2023-08-06T04:37:25;7.82;;;5.10;;
77350;SDS011;66420;50.246;14.320;2023-08-06T04:40:10;11.32;;;5.85;;
77350;SDS011;66420;50.246;14.320;2023-08-06T04:42:55;9.70;;;5.53;;
77350;SDS011;66420;50.246;14.320;2023-08-06T04:45:45;11.43;;;6.85;;
77350;SDS011;66420;50.246;14.320;2023-08-06T04:48:31;11.55;;;6.47;;
77350;SDS011;66420;50.246;14.320;2023-08-06T04:51:16;11.77;;;7.30;;
77350;SDS011;66420;50.246;14.320;2023-08-06T04:54:01;12.75;;;8.05;;
77350;SDS011;66420;50.246;14.320;2023-08-06T04:56:46;13.02;;;8.20;;
77350;SDS011;66420;50.246;14.320;2023-08-06T04:59:32;13.25;;;8.93;;
77350;SDS011;66420;50.246;14.320;2023-08-06T05:02:16;13.43;;;8.30;;
77350;SDS011;66420;50.246;14.320;2023-08-06T05:05:01;14.38;;;8.55;;
77350;SDS011;66420;50.246;14.320;2023-08-06T05:07:49;14.80;;;8.55;;
77350;SDS011;66420;50.246;14.320;2023-08-06T05:10:34;11.93;;;7.57;;
77350;SDS011;66420;50.246;14.320;2023-08-06T05:13:18;11.30;;;7.07;;
77350;SDS011;66420;50.246;14.320;2023-08-06T05:16:03;11.35;;;7.28;;
77350;SDS011;66420;50.246;14.320;2023-08-06T05:18:48;9.52;;;6.70;;
77350;SDS011;66420;50.246;14.320;2023-08-06T05:21:35;10.48;;;6.25;;
77350;SDS011;66420;50.246;14.320;2023-08-06T05:24:20;9.05;;;6.28;;
77350;SDS011;66420;50.246;14.320;2023-08-06T05:27:05;7.72;;;5.13;;
77350;SDS011;66420;50.246;14.320;2023-08-06T05:29:50;7.78;;;4.57;;
77350;SDS011;66420;50.246;14.320;2023-08-06T05:32:40;8.20;;;4.97;;
77350;SDS011;66420;50.246;14.320;2023-08-06T05:35:24;7.80;;;4.57;;
77350;SDS011;66420;50.246;14.320;2023-08-06T05:38:09;5.90;;;4.13;;
77350;SDS011;66420;50.246;14.320;2023-08-06T05:40:53;5.65;;;3.88;;
77350;SDS011;66420;50.246;14.320;2023-08-06T05:43:38;6.40;;;4.40;;
77350;SDS011;66420;50.246;14.320;2023-08-06T05:46:23;5.75;;;3.83;;
77350;SDS011;66420;50.246;14.320;2023-08-06T05:49:08;7.05;;;4.28;;
77350;SDS011;66420;50.246;14.320;2023-08-06T05:51:53;6.90;;;3.97;;
77350;SDS011;66420;50.246;14.320;2023-08-06T05:54:37;6.20;;;3.83;;
77350;SDS011;66420;50.246;14.320;2023-08-06T05:57:22;5.57;;;3.55;;
77350;SDS011;66420;50.246;14.320;2023-08-06T06:00:07;5.57;;;3.30;;
77350;SDS011;66420;50.246;14.320;2023-08-06T06:02:53;5.13;;;3.22;;
77350;SDS011;66420;50.246;14.320;2023-08-06T06:05:38;4.97;;;2.97;;
77350;SDS011;66420;50.246;14.320;2023-08-06T06:08:25;5.50;;;3.72;;
77350;SDS011;66420;50.246;14.320;2023-08-06T06:11:10;5.05;;;3.40;;
77350;SDS011;66420;50.246;14.320;2023-08-06T06:13:55;5.30;;;3.22;;
77350;SDS011;66420;50.246;14.320;2023-08-06T06:16:40;4.53;;;3.17;;
77350;SDS011;66420;50.246;14.320;2023-08-06T06:19:25;5.00;;;3.25;;
77350;SDS011;66420;50.246;14.320;2023-08-06T06:22:09;4.82;;;3.17;;
77350;SDS011;66420;50.246;14.320;2023-08-06T06:24:55;4.50;;;2.75;;
77350;SDS011;66420;50.246;14.320;2023-08-06T06:27:40;5.65;;;3.00;;
77350;SDS011;66420;50.246;14.320;2023-08-06T06:30:24;5.22;;;3.10;;
77350;SDS011;66420;50.246;14.320;2023-08-06T06:33:09;5.50;;;3.00;;
77350;SDS011;66420;50.246;14.320;2023-08-06T06:35:54;4.80;;;3.10;;
77350;SDS011;66420;50.246;14.320;2023-08-06T06:38:39;3.78;;;2.50;;
77350;SDS011;66420;50.246;14.320;2023-08-06T06:41:23;5.50;;;2.80;;
77350;SDS011;66420;50.246;14.320;2023-08-06T06:44:10;6.53;;;3.13;;
77350;SDS011;66420;50.246;14.320;2023-08-06T06:46:55;5.85;;;2.83;;
77350;SDS011;66420;50.246;14.320;2023-08-06T06:49:40;5.80;;;2.67;;
77350;SDS011;66420;50.246;14.320;2023-08-06T06:52:25;5.63;;;2.97;;
77350;SDS011;66420;50.246;14.320;2023-08-06T06:55:10;5.35;;;3.13;;
77350;SDS011;66420;50.246;14.320;2023-08-06T06:57:55;5.40;;;3.20;;
77350;SDS011;66420;50.246;14.320;2023-08-06T07:00:40;5.55;;;3.70;;
77350;SDS011;66420;50.246;14.320;2023-08-06T07:03:24;6.68;;;3.78;;
77350;SDS011;66420;50.246;14.320;2023-08-06T07:06:09;6.90;;;3.95;;
77350;SDS011;66420;50.246;14.320;2023-08-06T07:08:56;5.97;;;3.78;;
77350;SDS011;66420;50.246;14.320;2023-08-06T07:11:41;5.80;;;3.80;;
77350;SDS011;66420;50.246;14.320;2023-08-06T07:14:28;7.65;;;4.22;;
77350;SDS011;66420;50.246;14.320;2023-08-06T07:17:13;6.72;;;4.03;;
77350;SDS011;66420;50.246;14.320;2023-08-06T07:19:58;6.15;;;4.32;;
77350;SDS011;66420;50.246;14.320;2023-08-06T07:22:43;6.38;;;4.38;;
77350;SDS011;66420;50.246;14.320;2023-08-06T07:25:28;6.38;;;4.30;;
77350;SDS011;66420;50.246;14.320;2023-08-06T07:28:14;7.38;;;5.07;;
77350;SDS011;66420;50.246;14.320;2023-08-06T07:30:58;7.47;;;4.15;;
77350;SDS011;66420;50.246;14.320;2023-08-06T07:33:44;6.80;;;5.00;;
77350;SDS011;66420;50.246;14.320;2023-08-06T07:36:29;6.97;;;4.72;;
77350;SDS011;66420;50.246;14.320;2023-08-06T07:39:14;8.43;;;5.45;;
77350;SDS011;66420;50.246;14.320;2023-08-06T07:42:01;8.65;;;5.30;;
77350;SDS011;66420;50.246;14.320;2023-08-06T07:44:52;9.48;;;5.22;;
77350;SDS011;66420;50.246;14.320;2023-08-06T07:47:38;7.93;;;5.60;;
77350;SDS011;66420;50.246;14.320;2023-08-06T07:50:23;8.60;;;5.55;;
77350;SDS011;66420;50.246;14.320;2023-08-06T07:53:08;10.18;;;5.43;;
77350;SDS011;66420;50.246;14.320;2023-08-06T07:55:53;8.23;;;5.43;;
77350;SDS011;66420;50.246;14.320;2023-08-06T07:58:38;9.02;;;6.00;;
77350;SDS011;66420;50.246;14.320;2023-08-06T08:01:23;7.80;;;5.70;;
77350;SDS011;66420;50.246;14.320;2023-08-06T08:04:07;8.63;;;6.10;;
77350;SDS011;66420;50.246;14.320;2023-08-06T08:06:52;10.35;;;5.97;;
77350;SDS011;66420;50.246;14.320;2023-08-06T08:09:37;9.10;;;6.32;;
77350;SDS011;66420;50.246;14.320;2023-08-06T08:12:22;8.55;;;6.13;;
77350;SDS011;66420;50.246;14.320;2023-08-06T08:15:07;9.27;;;6.88;;
77350;SDS011;66420;50.246;14.320;2023-08-06T08:17:52;9.35;;;5.70;;
77350;SDS011;66420;50.246;14.320;2023-08-06T08:20:37;8.45;;;6.10;;
77350;SDS011;66420;50.246;14.320;2023-08-06T08:23:21;7.78;;;5.45;;
77350;SDS011;66420;50.246;14.320;2023-08-06T08:26:06;7.28;;;5.30;;
77350;SDS011;66420;50.246;14.320;2023-08-06T08:28:51;6.38;;;4.55;;
77350;SDS011;66420;50.246;14.320;2023-08-06T08:31:36;6.93;;;4.40;;
77350;SDS011;66420;50.246;14.320;2023-08-06T08:34:23;6.78;;;4.82;;
77350;SDS011;66420;50.246;14.320;2023-08-06T08:37:07;6.75;;;5.15;;
77350;SDS011;66420;50.246;14.320;2023-08-06T08:39:52;6.22;;;4.38;;
77350;SDS011;66420;50.246;14.320;2023-08-06T08:42:37;5.93;;;4.18;;
77350;SDS011;66420;50.246;14.320;2023-08-06T08:45:23;5.40;;;3.72;;
77350;SDS011;66420;50.246;14.320;2023-08-06T08:48:13;5.25;;;3.78;;
77350;SDS011;66420;50.246;14.320;2023-08-06T08:50:58;5.18;;;3.58;;
77350;SDS011;66420;50.246;14.320;2023-08-06T08:53:44;5.43;;;3.22;;
77350;SDS011;66420;50.246;14.320;2023-08-06T08:56:30;4.55;;;3.20;;
77350;SDS011;66420;50.246;14.320;2023-08-06T08:59:15;4.00;;;3.20;;
77350;SDS011;66420;50.246;14.320;2023-08-06T09:02:00;3.90;;;2.90;;
77350;SDS011;66420;50.246;14.320;2023-08-06T09:04:45;4.50;;;3.13;;
77350;SDS011;66420;50.246;14.320;2023-08-06T09:07:32;5.85;;;3.10;;
77350;SDS011;66420;50.246;14.320;2023-08-06T09:10:23;4.20;;;2.83;;
77350;SDS011;66420;50.246;14.320;2023-08-06T09:13:09;4.15;;;2.85;;
77350;SDS011;66420;50.246;14.320;2023-08-06T09:15:56;5.70;;;3.38;;
77350;SDS011;66420;50.246;14.320;2023-08-06T09:18:41;5.57;;;3.38;;
77350;SDS011;66420;50.246;14.320;2023-08-06T09:21:25;5.80;;;3.05;;
77350;SDS011;66420;50.246;14.320;2023-08-06T09:24:13;3.90;;;3.00;;
77350;SDS011;66420;50.246;14.320;2023-08-06T09:26:58;6.43;;;2.75;;
77350;SDS011;66420;50.246;14.320;2023-08-06T09:29:47;6.63;;;3.20;;
77350;SDS011;66420;50.246;14.320;2023-08-06T09:32:51;4.63;;;2.70;;
77350;SDS011;66420;50.246;14.320;2023-08-06T09:35:35;5.40;;;2.90;;
77350;SDS011;66420;50.246;14.320;2023-08-06T09:38:20;3.63;;;2.70;;
77350;SDS011;66420;50.246;14.320;2023-08-06T09:41:05;4.32;;;3.20;;
77350;SDS011;66420;50.246;14.320;2023-08-06T09:43:51;4.50;;;3.08;;
77350;SDS011;66420;50.246;14.320;2023-08-06T09:46:35;3.90;;;2.60;;
77350;SDS011;66420;50.246;14.320;2023-08-06T09:49:21;4.22;;;2.58;;
77350;SDS011;66420;50.246;14.320;2023-08-06T09:52:13;4.38;;;2.67;;
77350;SDS011;66420;50.246;14.320;2023-08-06T09:55:00;3.90;;;2.88;;
77350;SDS011;66420;50.246;14.320;2023-08-06T09:57:46;5.95;;;3.20;;
77350;SDS011;66420;50.246;14.320;2023-08-06T10:00:31;5.88;;;3.15;;
77350;SDS011;66420;50.246;14.320;2023-08-06T10:03:18;4.15;;;3.00;;
77350;SDS011;66420;50.246;14.320;2023-08-06T10:06:03;3.30;;;2.70;;
77350;SDS011;66420;50.246;14.320;2023-08-06T10:08:51;3.42;;;2.50;;
77350;SDS011;66420;50.246;14.320;2023-08-06T10:11:39;4.47;;;2.65;;
77350;SDS011;66420;50.246;14.320;2023-08-06T10:14:25;4.53;;;2.67;;
77350;SDS011;66420;50.246;14.320;2023-08-06T10:17:14;3.35;;;2.47;;
77350;SDS011;66420;50.246;14.320;2023-08-06T10:19:59;3.65;;;2.30;;
77350;SDS011;66420;50.246;14.320;2023-08-06T10:22:44;4.10;;;2.78;;
77350;SDS011;66420;50.246;14.320;2023-08-06T10:25:32;3.85;;;2.70;;
77350;SDS011;66420;50.246;14.320;2023-08-06T10:28:24;4.68;;;2.67;;
77350;SDS011;66420;50.246;14.320;2023-08-06T10:31:20;3.30;;;2.33;;
77350;SDS011;66420;50.246;14.320;2023-08-06T10:34:05;3.30;;;2.40;;
77350;SDS011;66420;50.246;14.320;2023-08-06T10:36:50;3.20;;;2.33;;
77350;SDS011;66420;50.246;14.320;2023-08-06T10:39:47;3.63;;;2.28;;
77350;SDS011;66420;50.246;14.320;2023-08-06T10:42:33;3.45;;;2.35;;
77350;SDS011;66420;50.246;14.320;2023-08-06T10:45:19;5.35;;;2.30;;
77350;SDS011;66420;50.246;14.320;2023-08-06T10:48:04;3.42;;;2.40;;
77350;SDS011;66420;50.246;14.320;2023-08-06T10:50:49;3.35;;;2.13;;
77350;SDS011;66420;50.246;14.320;2023-08-06T10:53:33;3.20;;;2.13;;
77350;SDS011;66420;50.246;14.320;2023-08-06T10:56:22;3.05;;;2.33;;
77350;SDS011;66420;50.246;14.320;2023-08-06T10:59:09;3.08;;;2.22;;
77350;SDS011;66420;50.246;14.320;2023-08-06T11:01:55;3.95;;;2.08;;
77350;SDS011;66420;50.246;14.320;2023-08-06T11:04:41;2.80;;;1.95;;
77350;SDS011;66420;50.246;14.320;2023-08-06T11:07:29;3.65;;;2.25;;
77350;SDS011;66420;50.246;14.320;2023-08-06T11:10:14;2.90;;;1.95;;
77350;SDS011;66420;50.246;14.320;2023-08-06T11:13:03;3.03;;;1.67;;
77350;SDS011;66420;50.246;14.320;2023-08-06T11:15:47;2.80;;;1.75;;
77350;SDS011;66420;50.246;14.320;2023-08-06T11:18:32;2.53;;;1.60;;
77350;SDS011;66420;50.246;14.320;2023-08-06T11:21:19;3.45;;;1.80;;
77350;SDS011;66420;50.246;14.320;2023-08-06T11:24:08;2.45;;;1.52;;
77350;SDS011;66420;50.246;14.320;2023-08-06T11:26:54;2.17;;;1.50;;
77350;SDS011;66420;50.246;14.320;2023-08-06T11:29:43;2.20;;;1.58;;
77350;SDS011;66420;50.246;14.320;2023-08-06T11:32:29;2.85;;;1.80;;
77350;SDS011;66420;50.246;14.320;2023-08-06T11:35:14;3.30;;;1.50;;
77350;SDS011;66420;50.246;14.320;2023-08-06T11:38:00;3.10;;;1.73;;
77350;SDS011;66420;50.246;14.320;2023-08-06T11:40:45;2.60;;;1.52;;
77350;SDS011;66420;50.246;14.320;2023-08-06T11:43:30;3.03;;;1.90;;
77350;SDS011;66420;50.246;14.320;2023-08-06T11:46:14;3.17;;;1.80;;
77350;SDS011;66420;50.246;14.320;2023-08-06T11:48:59;3.22;;;1.52;;
77350;SDS011;66420;50.246;14.320;2023-08-06T11:51:44;4.88;;;1.80;;
77350;SDS011;66420;50.246;14.320;2023-08-06T11:54:32;3.00;;;2.10;;
77350;SDS011;66420;50.246;14.320;2023-08-06T11:57:18;4.00;;;2.00;;
77350;SDS011;66420;50.246;14.320;2023-08-06T12:00:07;4.63;;;1.73;;
77350;SDS011;66420;50.246;14.320;2023-08-06T12:02:56;11.82;;;2.15;;
77350;SDS011;66420;50.246;14.320;2023-08-06T12:05:41;2.65;;;1.65;;
77350;SDS011;66420;50.246;14.320;2023-08-06T12:08:31;2.17;;;1.42;;
77350;SDS011;66420;50.246;14.320;2023-08-06T12:11:16;4.53;;;1.92;;
77350;SDS011;66420;50.246;14.320;2023-08-06T12:14:00;2.35;;;1.50;;
77350;SDS011;66420;50.246;14.320;2023-08-06T12:16:45;3.38;;;1.88;;
77350;SDS011;66420;50.246;14.320;2023-08-06T12:19:30;9.05;;;2.30;;
77350;SDS011;66420;50.246;14.320;2023-08-06T12:22:15;5.60;;;2.13;;
77350;SDS011;66420;50.246;14.320;2023-08-06T12:25:01;4.70;;;1.60;;
77350;SDS011;66420;50.246;14.320;2023-08-06T12:27:48;2.55;;;1.65;;
77350;SDS011;66420;50.246;14.320;2023-08-06T12:30:32;6.13;;;1.80;;
77350;SDS011;66420;50.246;14.320;2023-08-06T12:33:18;3.45;;;1.60;;
77350;SDS011;66420;50.246;14.320;2023-08-06T12:36:03;2.97;;;1.65;;
77350;SDS011;66420;50.246;14.320;2023-08-06T12:38:48;5.38;;;1.83;;
77350;SDS011;66420;50.246;14.320;2023-08-06T12:41:33;3.58;;;1.75;;
77350;SDS011;66420;50.246;14.320;2023-08-06T12:44:18;4.22;;;1.60;;
77350;SDS011;66420;50.246;14.320;2023-08-06T12:47:02;3.35;;;1.70;;
77350;SDS011;66420;50.246;14.320;2023-08-06T12:49:47;3.47;;;1.70;;
77350;SDS011;66420;50.246;14.320;2023-08-06T12:52:33;2.55;;;1.65;;
77350;SDS011;66420;50.246;14.320;2023-08-06T12:55:19;2.88;;;1.73;;
77350;SDS011;66420;50.246;14.320;2023-08-06T12:58:03;3.47;;;1.50;;
77350;SDS011;66420;50.246;14.320;2023-08-06T13:00:48;2.40;;;1.40;;
77350;SDS011;66420;50.246;14.320;2023-08-06T13:03:32;2.58;;;1.60;;
77350;SDS011;66420;50.246;14.320;2023-08-06T13:06:18;2.72;;;1.33;;
77350;SDS011;66420;50.246;14.320;2023-08-06T13:09:03;2.33;;;1.15;;
77350;SDS011;66420;50.246;14.320;2023-08-06T13:11:48;2.05;;;1.13;;
77350;SDS011;66420;50.246;14.320;2023-08-06T13:14:34;1.90;;;1.23;;
77350;SDS011;66420;50.246;14.320;2023-08-06T13:17:19;2.20;;;1.40;;
77350;SDS011;66420;50.246;14.320;2023-08-06T13:20:04;2.20;;;1.23;;
77350;SDS011;66420;50.246;14.320;2023-08-06T13:22:49;2.38;;;1.42;;
77350;SDS011;66420;50.246;14.320;2023-08-06T13:25:37;2.10;;;1.40;;
77350;SDS011;66420;50.246;14.320;2023-08-06T13:28:23;1.83;;;1.30;;
77350;SDS011;66420;50.246;14.320;2023-08-06T13:31:07;3.38;;;1.45;;
77350;SDS011;66420;50.246;14.320;2023-08-06T13:33:54;2.33;;;1.45;;
77350;SDS011;66420;50.246;14.320;2023-08-06T13:36:39;2.00;;;1.30;;
77350;SDS011;66420;50.246;14.320;2023-08-06T13:39:25;1.65;;;1.20;;
77350;SDS011;66420;50.246;14.320;2023-08-06T13:42:10;2.30;;;1.38;;
77350;SDS011;66420;50.246;14.320;2023-08-06T13:44:55;2.90;;;1.30;;
77350;SDS011;66420;50.246;14.320;2023-08-06T13:47:46;2.05;;;1.35;;
77350;SDS011;66420;50.246;14.320;2023-08-06T13:50:31;3.38;;;1.60;;
77350;SDS011;66420;50.246;14.320;2023-08-06T13:53:16;3.83;;;1.50;;
77350;SDS011;66420;50.246;14.320;2023-08-06T13:56:00;4.50;;;1.40;;
77350;SDS011;66420;50.246;14.320;2023-08-06T13:58:45;2.65;;;1.50;;
77350;SDS011;66420;50.246;14.320;2023-08-06T14:01:30;2.05;;;1.38;;
77350;SDS011;66420;50.246;14.320;2023-08-06T14:04:14;2.25;;;1.42;;
77350;SDS011;66420;50.246;14.320;2023-08-06T14:06:59;2.70;;;1.50;;
77350;SDS011;66420;50.246;14.320;2023-08-06T14:09:43;2.25;;;1.58;;
77350;SDS011;66420;50.246;14.320;2023-08-06T14:12:28;4.13;;;1.35;;
77350;SDS011;66420;50.246;14.320;2023-08-06T14:15:13;2.40;;;1.33;;
77350;SDS011;66420;50.246;14.320;2023-08-06T14:17:58;3.03;;;1.50;;
77350;SDS011;66420;50.246;14.320;2023-08-06T14:20:42;2.35;;;1.25;;
77350;SDS011;66420;50.246;14.320;2023-08-06T14:23:28;2.60;;;1.50;;
77350;SDS011;66420;50.246;14.320;2023-08-06T14:26:13;3.22;;;1.40;;
77350;SDS011;66420;50.246;14.320;2023-08-06T14:29:00;2.60;;;1.60;;
77350;SDS011;66420;50.246;14.320;2023-08-06T14:31:44;12.07;;;2.58;;
77350;SDS011;66420;50.246;14.320;2023-08-06T14:34:29;2.80;;;1.63;;
77350;SDS011;66420;50.246;14.320;2023-08-06T14:37:13;2.50;;;1.30;;
77350;SDS011;66420;50.246;14.320;2023-08-06T14:39:59;3.05;;;1.52;;
77350;SDS011;66420;50.246;14.320;2023-08-06T14:42:43;2.80;;;1.80;;
77350;SDS011;66420;50.246;14.320;2023-08-06T14:45:28;2.63;;;1.48;;
77350;SDS011;66420;50.246;14.320;2023-08-06T14:48:12;5.10;;;1.38;;
77350;SDS011;66420;50.246;14.320;2023-08-06T14:50:58;2.55;;;1.48;;
77350;SDS011;66420;50.246;14.320;2023-08-06T14:53:42;2.83;;;1.40;;
77350;SDS011;66420;50.246;14.320;2023-08-06T14:56:28;3.83;;;1.42;;
77350;SDS011;66420;50.246;14.320;2023-08-06T14:59:12;4.25;;;1.42;;
77350;SDS011;66420;50.246;14.320;2023-08-06T15:01:57;2.45;;;1.60;;
77350;SDS011;66420;50.246;14.320;2023-08-06T15:04:42;3.60;;;1.50;;
77350;SDS011;66420;50.246;14.320;2023-08-06T15:07:27;3.75;;;1.40;;
77350;SDS011;66420;50.246;14.320;2023-08-06T15:10:15;2.35;;;1.40;;
77350;SDS011;66420;50.246;14.320;2023-08-06T15:13:00;2.85;;;1.30;;
77350;SDS011;66420;50.246;14.320;2023-08-06T15:15:47;2.53;;;1.52;;
77350;SDS011;66420;50.246;14.320;2023-08-06T15:18:32;4.10;;;1.42;;
77350;SDS011;66420;50.246;14.320;2023-08-06T15:21:17;3.00;;;1.50;;
77350;SDS011;66420;50.246;14.320;2023-08-06T15:24:02;3.22;;;1.70;;
77350;SDS011;66420;50.246;14.320;2023-08-06T15:26:46;4.85;;;1.70;;
77350;SDS011;66420;50.246;14.320;2023-08-06T15:29:31;3.90;;;1.95;;
77350;SDS011;66420;50.246;14.320;2023-08-06T15:32:16;4.43;;;1.88;;
77350;SDS011;66420;50.246;14.320;2023-08-06T15:35:01;3.40;;;1.30;;
77350;SDS011;66420;50.246;14.320;2023-08-06T15:37:47;3.55;;;1.60;;
77350;SDS011;66420;50.246;14.320;2023-08-06T15:40:33;3.97;;;1.73;;
77350;SDS011;66420;50.246;14.320;2023-08-06T15:43:17;4.45;;;2.08;;
77350;SDS011;66420;50.246;14.320;2023-08-06T15:46:02;5.00;;;1.55;;
77350;SDS011;66420;50.246;14.320;2023-08-06T15:48:46;3.45;;;1.77;;
77350;SDS011;66420;50.246;14.320;2023-08-06T15:51:31;3.65;;;2.00;;
77350;SDS011;66420;50.246;14.320;2023-08-06T15:54:15;3.55;;;2.00;;
77350;SDS011;66420;50.246;14.320;2023-08-06T15:57:01;2.88;;;1.50;;
77350;SDS011;66420;50.246;14.320;2023-08-06T15:59:45;2.80;;;1.60;;
77350;SDS011;66420;50.246;14.320;2023-08-06T16:02:30;2.47;;;1.38;;
77350;SDS011;66420;50.246;14.320;2023-08-06T16:05:15;6.38;;;1.60;;
77350;SDS011;66420;50.246;14.320;2023-08-06T16:08:00;2.75;;;1.63;;
77350;SDS011;66420;50.246;14.320;2023-08-06T16:10:45;5.28;;;1.55;;
77350;SDS011;66420;50.246;14.320;2023-08-06T16:13:30;3.50;;;1.73;;
77350;SDS011;66420;50.246;14.320;2023-08-06T16:16:15;3.35;;;1.70;;
77350;SDS011;66420;50.246;14.320;2023-08-06T16:19:03;5.18;;;1.83;;
77350;SDS011;66420;50.246;14.320;2023-08-06T16:21:48;6.00;;;2.00;;
77350;SDS011;66420;50.246;14.320;2023-08-06T16:24:35;4.53;;;1.80;;
77350;SDS011;66420;50.246;14.320;2023-08-06T16:27:20;6.28;;;1.80;;